createdAt,value
2022-09-16T00:00:17.659Z,99763.72
2022-09-16T00:02:40.861Z,99760.19
2022-09-16T00:05:06.025Z,99772.66
2022-09-16T00:07:30.652Z,99765.22
2022-09-16T00:09:53.899Z,99764.56
2022-09-16T00:12:17.031Z,99767.09
2022-09-16T00:14:40.491Z,99760.84
2022-09-16T00:17:03.649Z,99767.25
2022-09-16T00:19:26.826Z,99761.03
2022-09-16T00:21:51.735Z,99767.25
2022-09-16T00:24:15.703Z,99768.28
2022-09-16T00:26:39.966Z,99762.91
2022-09-16T00:29:02.947Z,99766.63
2022-09-16T00:31:26.261Z,99771.00
2022-09-16T00:33:49.463Z,99769.31
2022-09-16T00:36:13.969Z,99763.06
2022-09-16T00:38:38.562Z,99762.91
2022-09-16T00:41:01.711Z,99760.00
2022-09-16T00:43:24.972Z,99761.84
2022-09-16T00:45:49.434Z,99763.56
2022-09-16T00:48:15.732Z,99759.16
2022-09-16T00:50:40.679Z,99759.53
2022-09-16T00:53:03.846Z,99768.28
2022-09-16T00:55:29.304Z,99769.97
2022-09-16T00:57:52.487Z,99769.13
2022-09-16T01:00:16.465Z,99771.66
2022-09-16T01:02:39.659Z,99771.00
2022-09-16T01:05:05.667Z,99763.72
2022-09-16T01:07:32.678Z,99761.84
2022-09-16T01:09:56.865Z,99759.16
2022-09-16T01:12:21.420Z,99758.53
2022-09-16T01:14:58.276Z,99750.59
2022-09-16T01:17:28.140Z,99753.28
2022-09-16T01:20:03.891Z,99748.72
2022-09-16T01:22:35.790Z,99752.66
2022-09-16T01:25:02.024Z,99759.88
2022-09-16T01:27:50.545Z,99756.56
2022-09-16T01:30:27.794Z,99764.47
2022-09-16T01:32:57.680Z,99764.47
2022-09-16T01:35:24.493Z,99767.16
2022-09-16T01:37:51.525Z,99761.28
2022-09-16T01:40:17.802Z,99753.66
2022-09-16T01:42:42.987Z,99755.06
2022-09-16T01:45:08.352Z,99748.63
2022-09-16T01:47:35.060Z,99742.22
2022-09-16T01:50:01.751Z,99744.06
2022-09-16T01:52:26.402Z,99733.81
2022-09-16T01:54:51.237Z,99750.50
2022-09-16T01:57:17.700Z,99730.28
2022-09-16T01:59:43.353Z,99736.63
2022-09-16T02:02:09.080Z,99744.72
2022-09-16T02:04:34.247Z,99746.41
2022-09-16T02:06:58.831Z,99739.53
2022-09-16T02:09:22.845Z,99736.34
2022-09-16T02:11:46.126Z,99742.38
2022-09-16T02:14:11.367Z,99741.75
2022-09-16T02:16:37.001Z,99743.59
2022-09-16T02:19:02.949Z,99734.66
2022-09-16T02:21:26.663Z,99742.75
2022-09-16T02:23:52.285Z,99750.22
2022-09-16T02:26:17.547Z,99743.31
2022-09-16T02:28:42.669Z,99750.38
2022-09-16T02:31:07.805Z,99738.66
2022-09-16T02:33:32.936Z,99730.84
2022-09-16T02:35:56.368Z,99733.56
2022-09-16T02:38:21.737Z,99739.78
2022-09-16T02:40:48.194Z,99744.50
2022-09-16T02:43:11.407Z,99745.34
2022-09-16T02:45:38.366Z,99735.47
2022-09-16T02:48:03.238Z,99746.03
2022-09-16T02:50:27.961Z,99763.25
2022-09-16T02:52:54.028Z,99752.25
2022-09-16T02:55:21.885Z,99744.34
2022-09-16T02:57:46.474Z,99756.81
2022-09-16T03:00:10.638Z,99757.66
2022-09-16T03:02:34.350Z,99741.44
2022-09-16T03:04:57.664Z,99754.94
2022-09-16T03:07:20.842Z,99744.72
2022-09-16T03:09:45.159Z,99744.34
2022-09-16T03:12:14.345Z,99751.59
2022-09-16T03:14:53.218Z,99742.84
2022-09-16T03:17:24.432Z,99723.38
2022-09-16T03:19:51.412Z,99737.16
2022-09-16T03:22:17.735Z,99742.19
2022-09-16T03:24:47.296Z,99754.84
2022-09-16T03:27:11.585Z,99749.81
2022-09-16T03:29:36.372Z,99754.84
2022-09-16T03:32:03.562Z,99755.56
2022-09-16T03:34:28.229Z,99755.56
2022-09-16T03:36:52.872Z,99760.97
2022-09-16T03:39:16.054Z,99758.25
2022-09-16T03:41:39.212Z,99757.50
2022-09-16T03:44:04.272Z,99774.66
2022-09-16T03:46:28.992Z,99769.63
2022-09-16T03:48:53.676Z,99788.16
2022-09-16T03:51:16.937Z,99776.69
2022-09-16T03:53:40.190Z,99783.38
2022-09-16T03:56:03.714Z,99777.34
2022-09-16T03:58:26.846Z,99790.19
2022-09-16T04:00:51.857Z,99788.31
2022-09-16T04:03:15.046Z,99780.22
2022-09-16T04:05:39.630Z,99782.81
2022-09-16T04:08:03.059Z,99786.84
2022-09-16T04:10:26.203Z,99785.97
2022-09-16T04:12:49.413Z,99783.47
2022-09-16T04:15:12.955Z,99790.91
2022-09-16T04:17:36.152Z,99798.34
2022-09-16T04:19:59.319Z,99791.09
2022-09-16T04:22:23.873Z,99793.13
2022-09-16T04:24:47.153Z,99802.03
2022-09-16T04:27:10.325Z,99797.00
2022-09-16T04:29:33.573Z,99794.31
2022-09-16T04:31:56.798Z,99807.16
2022-09-16T04:34:20.164Z,99802.94
2022-09-16T04:36:43.338Z,99793.34
2022-09-16T04:39:07.886Z,99793.34
2022-09-16T04:41:31.059Z,99796.59
2022-09-16T04:43:56.072Z,99801.31
2022-09-16T04:46:19.522Z,99804.50
2022-09-16T04:48:42.833Z,99804.50
2022-09-16T04:51:07.141Z,99801.53
2022-09-16T04:53:30.285Z,99811.28
2022-09-16T04:55:54.814Z,99807.19
2022-09-16T04:58:17.989Z,99803.44
2022-09-16T05:00:41.226Z,99806.44
2022-09-16T05:03:04.409Z,99810.13
2022-09-16T05:05:27.781Z,99810.50
2022-09-16T05:07:50.930Z,99806.31
2022-09-16T05:10:14.293Z,99810.69
2022-09-16T05:12:38.797Z,99811.41
2022-09-16T05:15:01.990Z,99805.53
2022-09-16T05:17:49.417Z,99798.81
2022-09-16T05:20:08.938Z,99805.25
2022-09-16T05:22:32.120Z,99808.63
2022-09-16T05:24:55.230Z,99802.56
2022-09-16T05:27:18.465Z,99811.47
2022-09-16T05:29:43.019Z,99800.53
2022-09-16T05:32:06.379Z,99799.50
2022-09-16T05:34:29.805Z,99804.22
2022-09-16T05:36:54.170Z,99798.63
2022-09-16T05:39:23.212Z,99794.75
2022-09-16T05:41:47.162Z,99795.56
2022-09-16T05:44:10.331Z,99793.91
2022-09-16T05:46:35.158Z,99797.75
2022-09-16T05:48:58.303Z,99799.22
2022-09-16T05:51:22.370Z,99794.31
2022-09-16T05:53:45.786Z,99803.28
2022-09-16T05:56:10.103Z,99803.28
2022-09-16T05:58:33.393Z,99802.91
2022-09-16T06:00:59.823Z,99808.78
2022-09-16T06:03:24.425Z,99802.84
2022-09-16T06:05:47.563Z,99797.06
2022-09-16T06:08:10.834Z,99806.69
2022-09-16T06:10:37.999Z,99801.91
2022-09-16T06:13:01.136Z,99806.47
2022-09-16T06:15:24.459Z,99810.50
2022-09-16T06:17:47.628Z,99806.59
2022-09-16T06:20:14.789Z,99809.78
2022-09-16T06:22:37.935Z,99804.22
2022-09-16T06:25:01.178Z,99813.78
2022-09-16T06:27:24.342Z,99812.41
2022-09-16T06:29:47.534Z,99814.91
2022-09-16T06:32:10.677Z,99809.16
2022-09-16T06:34:33.874Z,99803.41
2022-09-16T06:36:58.358Z,99807.75
2022-09-16T06:39:23.078Z,99809.25
2022-09-16T06:41:46.246Z,99815.38
2022-09-16T06:44:09.501Z,99811.78
2022-09-16T06:46:32.705Z,99815.16
2022-09-16T06:48:58.701Z,99804.16
2022-09-16T06:51:24.687Z,99810.44
2022-09-16T06:53:49.018Z,99812.47
2022-09-16T06:56:14.102Z,99811.44
2022-09-16T06:58:37.416Z,99811.63
2022-09-16T07:01:00.758Z,99822.22
2022-09-16T07:03:23.889Z,99811.44
2022-09-16T07:05:56.997Z,99814.13
2022-09-16T07:08:20.217Z,99821.59
2022-09-16T07:10:44.767Z,99825.97
2022-09-16T07:13:07.976Z,99825.59
2022-09-16T07:15:31.167Z,99829.59
2022-09-16T07:17:55.220Z,99826.38
2022-09-16T07:20:18.459Z,99823.28
2022-09-16T07:22:41.613Z,99828.06
2022-09-16T07:25:05.205Z,99837.47
2022-09-16T07:27:29.845Z,99816.81
2022-09-16T07:29:53.895Z,99820.44
2022-09-16T07:32:17.109Z,99826.47
2022-09-16T07:34:40.421Z,99842.16
2022-09-16T07:37:03.617Z,99813.97
2022-09-16T07:39:27.190Z,99810.91
2022-09-16T07:41:50.414Z,99809.81
2022-09-16T07:44:17.004Z,99812.34
2022-09-16T07:46:40.192Z,99851.75
2022-09-16T07:49:05.677Z,99829.28
2022-09-16T07:51:29.003Z,99815.63
2022-09-16T07:53:54.861Z,99820.47
2022-09-16T07:56:18.857Z,99822.69
2022-09-16T07:58:42.017Z,99815.03
2022-09-16T08:01:07.993Z,99828.34
2022-09-16T08:03:31.199Z,99845.03
2022-09-16T08:05:54.409Z,99826.31
2022-09-16T08:08:17.582Z,99819.59
2022-09-16T08:10:41.333Z,99813.25
2022-09-16T08:13:04.566Z,99813.91
2022-09-16T08:15:27.763Z,99840.56
2022-09-16T08:17:52.404Z,99842.50
2022-09-16T08:20:15.957Z,99852.13
2022-09-16T08:22:39.119Z,99832.19
2022-09-16T08:25:02.371Z,99823.69
2022-09-16T08:27:25.578Z,99811.25
2022-09-16T08:29:49.016Z,99842.25
2022-09-16T08:32:12.218Z,99821.88
2022-09-16T08:34:36.729Z,99812.47
2022-09-16T08:37:00.045Z,99854.75
2022-09-16T08:39:23.184Z,99820.59
2022-09-16T08:42:03.479Z,99837.88
2022-09-16T08:44:32.266Z,99821.31
2022-09-16T08:46:57.326Z,99816.59
2022-09-16T08:49:26.876Z,99802.22
2022-09-16T08:51:51.466Z,99799.78
2022-09-16T08:54:19.546Z,99786.84
2022-09-16T08:56:45.004Z,99801.81
2022-09-16T08:59:24.640Z,99799.56
2022-09-16T09:01:51.785Z,99803.69
2022-09-16T09:04:15.382Z,99818.06
2022-09-16T09:06:48.541Z,99816.47
2022-09-16T09:09:31.472Z,99833.53
2022-09-16T09:11:57.600Z,99795.63
2022-09-16T09:14:29.507Z,99783.53
2022-09-16T09:16:55.073Z,99788.09
2022-09-16T09:19:29.205Z,99798.13
2022-09-16T09:21:57.294Z,99788.94
2022-09-16T09:24:29.577Z,99812.38
2022-09-16T09:26:53.513Z,99796.34
2022-09-16T09:29:27.770Z,99798.81
2022-09-16T09:31:55.040Z,99796.75
2022-09-16T09:34:26.647Z,99800.50
2022-09-16T09:36:57.871Z,99788.88
2022-09-16T09:39:32.612Z,99826.78
2022-09-16T09:41:56.220Z,99812.28
2022-09-16T09:44:38.340Z,99796.50
2022-09-16T09:47:04.190Z,99848.13
2022-09-16T09:49:28.915Z,99844.69
2022-09-16T09:51:54.903Z,99812.66
2022-09-16T09:54:24.672Z,99804.25
2022-09-16T09:56:49.203Z,99806.63
2022-09-16T09:59:16.491Z,99809.78
2022-09-16T10:01:39.679Z,99794.16
2022-09-16T10:04:04.238Z,99798.03
2022-09-16T10:06:29.027Z,99818.13
2022-09-16T10:08:52.953Z,99844.13
2022-09-16T10:11:17.857Z,99803.28
2022-09-16T10:13:48.799Z,99789.31
2022-09-16T10:16:15.225Z,99784.97
2022-09-16T10:18:38.442Z,99810.72
2022-09-16T10:21:04.801Z,99822.72
2022-09-16T10:23:30.242Z,99819.34
2022-09-16T10:26:05.352Z,99801.28
2022-09-16T10:28:28.535Z,99799.53
2022-09-16T10:30:54.408Z,99803.81
2022-09-16T10:33:19.723Z,99799.13
2022-09-16T10:35:42.947Z,99823.41
2022-09-16T10:38:07.600Z,99831.56
2022-09-16T10:40:30.886Z,99797.63
2022-09-16T10:42:55.041Z,99801.38
2022-09-16T10:45:24.245Z,99784.84
2022-09-16T10:47:51.465Z,99785.28
2022-09-16T10:50:17.622Z,99798.13
2022-09-16T10:52:42.878Z,99789.34
2022-09-16T10:55:13.082Z,99801.28
2022-09-16T10:57:40.305Z,99804.56
2022-09-16T11:00:09.729Z,99790.41
2022-09-16T11:02:53.893Z,99812.19
2022-09-16T11:05:21.603Z,99797.09
2022-09-16T11:07:49.170Z,99815.09
2022-09-16T11:10:16.961Z,99795.13
2022-09-16T11:12:51.982Z,99808.66
2022-09-16T11:15:22.156Z,99784.50
2022-09-16T11:17:55.610Z,99826.03
2022-09-16T11:20:34.348Z,99792.06
2022-09-16T11:23:01.095Z,99791.72
2022-09-16T11:25:46.077Z,99802.09
2022-09-16T11:28:14.557Z,99800.63
2022-09-16T11:30:40.714Z,99792.00
2022-09-16T11:35:58.481Z,99840.31
2022-09-16T11:38:25.060Z,99784.84
2022-09-16T11:40:49.020Z,99800.28
2022-09-16T11:43:40.745Z,99791.72
2022-09-16T11:46:06.830Z,99788.44
2022-09-16T11:48:40.333Z,99790.88
2022-09-16T11:51:07.353Z,99790.50
2022-09-16T11:53:58.333Z,99758.56
2022-09-16T11:56:26.863Z,99762.69
2022-09-16T11:58:51.789Z,99760.63
2022-09-16T12:01:20.914Z,99761.69
2022-09-16T12:03:47.942Z,99761.25
2022-09-16T12:06:12.765Z,99752.56
2022-09-16T12:08:41.867Z,99749.84
2022-09-16T12:11:06.938Z,99747.38
2022-09-16T12:13:31.054Z,99744.69
2022-09-16T12:15:55.535Z,99742.22
2022-09-16T12:18:20.504Z,99743.88
2022-09-16T12:20:46.553Z,99746.38
2022-09-16T12:23:15.662Z,99752.00
2022-09-16T12:25:45.456Z,99741.41
2022-09-16T12:28:13.862Z,99739.13
2022-09-16T12:30:38.089Z,99732.28
2022-09-16T12:33:02.463Z,99726.75
2022-09-16T12:35:28.881Z,99744.72
2022-09-16T12:37:54.560Z,99733.06
2022-09-16T12:40:20.379Z,99723.09
2022-09-16T12:43:02.564Z,99743.56
2022-09-16T12:45:52.198Z,99719.44
2022-09-16T12:48:25.422Z,99714.53
2022-09-16T12:50:57.095Z,99708.44
2022-09-16T12:53:51.018Z,99758.41
2022-09-16T12:56:16.033Z,99713.44
2022-09-16T12:58:50.185Z,99731.09
2022-09-16T13:01:18.524Z,99720.22
2022-09-16T13:03:43.034Z,99708.41
2022-09-16T13:06:07.350Z,99696.75
2022-09-16T13:08:30.650Z,99709.63
2022-09-16T13:11:25.601Z,99724.19
2022-09-16T13:13:44.154Z,99705.44
2022-09-16T13:16:08.280Z,99683.16
2022-09-16T13:18:43.766Z,99706.34
2022-09-16T13:21:08.309Z,99694.63
2022-09-16T13:23:32.967Z,99710.03
2022-09-16T13:25:59.631Z,99703.53
2022-09-16T13:28:29.054Z,99700.63
2022-09-16T13:30:52.371Z,99699.81
2022-09-16T13:33:28.818Z,99700.00
2022-09-16T13:36:05.165Z,99716.13
2022-09-16T13:38:38.799Z,99707.38
2022-09-16T13:41:03.425Z,99706.31
2022-09-16T13:43:31.400Z,99703.16
2022-09-16T13:46:02.462Z,99727.78
2022-09-16T13:48:26.261Z,99705.03
2022-09-16T13:50:53.025Z,99714.00
2022-09-16T13:53:29.890Z,99708.75
2022-09-16T13:55:53.037Z,99713.75
2022-09-16T13:58:20.549Z,99721.09
2022-09-16T14:00:48.835Z,99716.31
2022-09-16T14:03:34.660Z,99719.72
2022-09-16T14:06:06.830Z,99706.38
2022-09-16T14:08:34.375Z,99712.22
2022-09-16T14:10:59.354Z,99709.69
2022-09-16T14:13:24.525Z,99714.44
2022-09-16T14:15:49.399Z,99707.59
2022-09-16T14:18:14.156Z,99720.25
2022-09-16T14:20:37.413Z,99713.97
2022-09-16T14:23:04.638Z,99723.53
2022-09-16T14:25:32.152Z,99726.88
2022-09-16T14:28:08.608Z,99723.28
2022-09-16T14:30:33.342Z,99716.41
2022-09-16T14:32:56.546Z,99705.78
2022-09-16T14:35:21.023Z,99714.09
2022-09-16T14:37:45.161Z,99717.00
2022-09-16T14:40:13.017Z,99728.88
2022-09-16T14:42:36.309Z,99732.16
2022-09-16T14:44:59.452Z,99731.13
2022-09-16T14:47:39.805Z,99723.19
2022-09-16T14:50:25.155Z,99724.50
2022-09-16T14:52:54.494Z,99728.22
2022-09-16T14:55:20.555Z,99730.69
2022-09-16T14:57:43.841Z,99738.97
2022-09-16T15:00:11.670Z,99751.06
2022-09-16T15:02:38.923Z,99752.47
2022-09-16T15:05:18.062Z,99769.59
2022-09-16T15:07:50.863Z,99780.81
2022-09-16T15:10:25.309Z,99806.19
2022-09-16T15:12:52.939Z,99831.81
2022-09-16T15:15:17.823Z,99858.91
2022-09-16T15:17:42.405Z,99904.28
2022-09-16T15:20:06.226Z,99919.69
2022-09-16T15:22:29.450Z,99915.09
2022-09-16T15:24:53.945Z,99946.56
2022-09-16T15:27:22.316Z,99924.66
2022-09-16T15:29:49.229Z,99896.53
2022-09-16T15:32:24.173Z,99902.47
2022-09-16T15:34:49.762Z,99880.66
2022-09-16T15:37:30.625Z,99899.72
2022-09-16T15:39:53.805Z,99880.97
2022-09-16T15:42:18.963Z,99866.22
2022-09-16T15:44:45.118Z,99875.84
2022-09-16T15:47:19.969Z,99890.41
2022-09-16T15:49:43.198Z,99901.59
2022-09-16T15:52:09.393Z,99900.31
2022-09-16T15:54:33.799Z,99908.97
2022-09-16T15:57:02.137Z,99916.47
2022-09-16T15:59:30.897Z,99907.31
2022-09-16T16:01:55.247Z,99877.63
2022-09-16T16:04:24.117Z,99890.03
2022-09-16T16:06:52.608Z,99891.25
2022-09-16T16:09:45.026Z,99883.34
2022-09-16T16:12:10.139Z,99884.00
2022-09-16T16:14:33.834Z,99886.34
2022-09-16T16:17:12.247Z,99882.34
2022-09-16T16:19:36.501Z,99878.75
2022-09-16T16:22:00.371Z,99876.50
2022-09-16T16:24:23.683Z,99868.59
2022-09-16T16:26:48.232Z,99861.56
2022-09-16T16:29:11.430Z,99872.03
2022-09-16T16:31:35.363Z,99861.03
2022-09-16T16:33:58.673Z,99860.66
2022-09-16T16:36:22.190Z,99848.09
2022-09-16T16:38:46.395Z,99854.72
2022-09-16T16:41:09.529Z,99847.00
2022-09-16T16:43:34.052Z,99852.50
2022-09-16T16:45:57.425Z,99865.81
2022-09-16T16:48:20.742Z,99857.75
2022-09-16T16:50:43.996Z,99856.53
2022-09-16T16:53:07.469Z,99854.28
2022-09-16T16:55:31.112Z,99859.75
2022-09-16T16:57:54.350Z,99873.19
2022-09-16T17:00:19.514Z,99876.66
2022-09-16T17:02:42.671Z,99903.00
2022-09-16T17:05:06.482Z,99915.31
2022-09-16T17:07:30.169Z,99889.50
2022-09-16T17:09:53.565Z,99893.69
2022-09-16T17:12:18.084Z,99874.09
2022-09-16T17:14:42.230Z,99874.31
2022-09-16T17:17:06.830Z,99856.75
2022-09-16T17:19:31.022Z,99862.84
2022-09-16T17:21:54.340Z,99850.25
2022-09-16T17:24:18.045Z,99845.75
2022-09-16T17:26:41.178Z,99847.66
2022-09-16T17:29:11.712Z,99843.28
2022-09-16T17:31:40.232Z,99861.94
2022-09-16T17:34:06.377Z,99872.28
2022-09-16T17:36:29.739Z,99874.78
2022-09-16T17:38:57.362Z,99848.50
2022-09-16T17:41:22.498Z,99859.41
2022-09-16T17:43:46.002Z,99857.84
2022-09-16T17:46:14.144Z,99844.56
2022-09-16T17:48:38.073Z,99845.31
2022-09-16T17:51:02.639Z,99820.00
2022-09-16T17:53:26.201Z,99824.91
2022-09-16T17:55:49.873Z,99834.59
2022-09-16T17:58:13.022Z,99835.94
2022-09-16T18:00:37.551Z,99817.91
2022-09-16T18:03:00.821Z,99800.78
2022-09-16T18:05:29.321Z,99779.41
2022-09-16T18:07:54.561Z,99770.69
2022-09-16T18:10:18.075Z,99766.09
2022-09-16T18:12:41.255Z,99782.59
2022-09-16T18:15:04.934Z,99787.81
2022-09-16T18:17:28.437Z,99792.75
2022-09-16T18:19:51.847Z,99793.97
2022-09-16T18:22:15.374Z,99793.69
2022-09-16T18:24:40.145Z,99780.47
2022-09-16T18:27:03.429Z,99780.09
2022-09-16T18:29:26.603Z,99781.16
2022-09-16T18:31:49.955Z,99780.63
2022-09-16T18:34:13.562Z,99780.81
2022-09-16T18:36:37.777Z,99771.13
2022-09-16T18:39:01.923Z,99793.97
2022-09-16T18:41:27.278Z,99802.00
2022-09-16T18:43:53.514Z,99804.66
2022-09-16T18:46:17.892Z,99768.53
2022-09-16T18:48:42.784Z,99785.13
2022-09-16T18:51:06.440Z,99782.88
2022-09-16T18:53:29.723Z,99772.06
2022-09-16T18:55:53.972Z,99762.53
2022-09-16T18:58:18.511Z,99747.72
2022-09-16T19:00:41.959Z,99744.94
2022-09-16T19:03:05.207Z,99770.38
2022-09-16T19:05:28.715Z,99783.91
2022-09-16T19:07:51.886Z,99782.78
2022-09-16T19:10:15.098Z,99777.94
2022-09-16T19:12:39.348Z,99774.31
2022-09-16T19:15:04.190Z,99771.72
2022-09-16T19:17:27.892Z,99767.22
2022-09-16T19:19:52.180Z,99774.38
2022-09-16T19:22:15.393Z,99776.84
2022-09-16T19:24:38.789Z,99779.34
2022-09-16T19:27:02.193Z,99779.25
2022-09-16T19:29:25.598Z,99773.38
2022-09-16T19:31:51.986Z,99771.03
2022-09-16T19:34:16.063Z,99773.47
2022-09-16T19:36:39.514Z,99796.09
2022-09-16T19:39:02.752Z,99808.69
2022-09-16T19:41:28.225Z,99810.63
2022-09-16T19:43:54.413Z,99775.06
2022-09-16T19:46:19.369Z,99777.63
2022-09-16T19:48:45.828Z,99783.59
2022-09-16T19:51:10.682Z,99809.25
2022-09-16T19:53:34.783Z,99803.75
2022-09-16T19:55:58.674Z,99779.44
2022-09-16T19:58:21.942Z,99797.53
2022-09-16T20:00:55.775Z,99795.19
2022-09-16T20:03:19.374Z,99814.47
2022-09-16T20:05:43.962Z,99821.25
2022-09-16T20:08:07.375Z,99804.56
2022-09-16T20:10:30.579Z,99790.91
2022-09-16T20:12:58.683Z,99800.88
2022-09-16T20:15:22.667Z,99815.28
2022-09-16T20:17:45.893Z,99823.13
2022-09-16T20:20:09.452Z,99816.88
2022-09-16T20:22:34.081Z,99803.19
2022-09-16T20:25:18.727Z,99797.25
2022-09-16T20:27:40.493Z,99793.56
2022-09-16T20:30:03.874Z,99804.84
2022-09-16T20:32:27.157Z,99809.25
2022-09-16T20:34:50.300Z,99806.81
2022-09-16T20:37:13.541Z,99796.03
2022-09-16T20:39:38.086Z,99800.69
2022-09-16T20:42:01.274Z,99803.09
2022-09-16T20:44:24.519Z,99800.84
2022-09-16T20:46:48.978Z,99791.75
2022-09-16T20:49:15.200Z,99811.84
2022-09-16T20:51:38.518Z,99805.44
2022-09-16T20:54:07.311Z,99817.56
2022-09-16T20:56:38.012Z,99821.09
2022-09-16T20:59:02.028Z,99830.34
2022-09-16T21:01:25.970Z,99826.91
2022-09-16T21:03:51.698Z,99817.03
2022-09-16T21:06:15.769Z,99823.38
2022-09-16T21:08:38.975Z,99827.94
2022-09-16T21:11:05.592Z,99838.44
2022-09-16T21:13:31.265Z,99825.16
2022-09-16T21:15:57.554Z,99818.66
2022-09-16T21:18:22.322Z,99817.97
2022-09-16T21:20:45.571Z,99821.97
2022-09-16T21:23:08.830Z,99827.00
2022-09-16T21:25:32.942Z,99829.97
2022-09-16T21:27:56.316Z,99828.13
2022-09-16T21:30:20.843Z,99821.03
2022-09-16T21:32:44.132Z,99818.13
2022-09-16T21:35:08.037Z,99821.00
2022-09-16T21:37:31.254Z,99816.19
2022-09-16T21:39:54.499Z,99820.09
2022-09-16T21:42:17.726Z,99820.34
2022-09-16T21:44:40.918Z,99819.34
2022-09-16T21:47:08.041Z,99824.41
2022-09-16T21:49:32.655Z,99825.56
2022-09-16T21:51:56.510Z,99823.94
2022-09-16T21:54:20.588Z,99815.28
2022-09-16T21:56:43.906Z,99809.00
2022-09-16T21:59:07.334Z,99803.78
2022-09-16T22:01:31.607Z,99790.72
2022-09-16T22:03:56.367Z,99798.28
2022-09-16T22:06:19.575Z,99794.06
2022-09-16T22:08:48.577Z,99797.06
2022-09-16T22:11:13.590Z,99794.03
2022-09-16T22:13:36.906Z,99787.44
2022-09-16T22:16:00.231Z,99786.84
2022-09-16T22:18:23.793Z,99780.78
2022-09-16T22:20:48.519Z,99779.28
2022-09-16T22:23:11.788Z,99773.16
2022-09-16T22:25:36.172Z,99783.69
2022-09-16T22:27:59.236Z,99777.00
2022-09-16T22:30:22.460Z,99777.47
2022-09-16T22:32:45.713Z,99769.69
2022-09-16T22:35:10.001Z,99773.66
2022-09-16T22:37:34.595Z,99769.91
2022-09-16T22:39:57.939Z,99771.75
2022-09-16T22:42:21.194Z,99776.03
2022-09-16T22:44:44.400Z,99775.75
2022-09-16T22:47:07.827Z,99774.75
2022-09-16T22:49:31.188Z,99784.16
2022-09-16T22:51:54.421Z,99774.56
2022-09-16T22:54:19.173Z,99772.00
2022-09-16T22:56:42.640Z,99769.97
2022-09-16T22:59:08.340Z,99767.50
2022-09-16T23:01:32.987Z,99771.50
2022-09-16T23:03:57.207Z,99765.84
2022-09-16T23:06:20.385Z,99762.78
2022-09-16T23:08:45.371Z,99757.28
2022-09-16T23:11:13.270Z,99743.16
2022-09-16T23:13:42.057Z,99745.75
2022-09-16T23:16:06.267Z,99740.69
2022-09-16T23:18:29.589Z,99731.75
2022-09-16T23:20:59.709Z,99731.28
2022-09-16T23:23:23.032Z,99733.56
2022-09-16T23:25:46.229Z,99741.06
2022-09-16T23:28:10.897Z,99732.97
2022-09-16T23:30:34.194Z,99732.75
2022-09-16T23:32:57.512Z,99731.38
2022-09-16T23:35:20.765Z,99723.59
2022-09-16T23:37:44.053Z,99717.63
2022-09-16T23:40:08.683Z,99720.16
2022-09-16T23:42:31.977Z,99726.13
2022-09-16T23:44:56.571Z,99729.78
2022-09-16T23:47:19.868Z,99720.63
2022-09-16T23:49:43.365Z,99718.63
2022-09-16T23:52:06.558Z,99712.38
2022-09-16T23:54:29.826Z,99710.88
2022-09-16T23:56:53.005Z,99714.66
2022-09-16T23:59:16.454Z,99717.88
